Omak, WA

4:26 AM PST on December 27, 2014 (GMT -0800)
Omak | Change Station
CLOSE
Current Station
Airport
Location: Omak,
Elevation: 1302 ft
Nearby Weather Stations

Elev 1302 ft 48.46 °N, 119.52 °W | Updated 33 minutes ago

Overcast
Overcast
26 °F
Feels Like 22 °F
N
4
Wind Variable Wind from South

Today
High -- | Low -- °F
--% Chance of Precip.
Yesterday
High -- | Low -- °F
Precip. -- in
7:49 AM 4:09 PM
Waxing Crescent, 36% visible
Pressure 30.27 in
Visibility 9.0 miles
Clouds Overcast 11000 ft
Windchill 22 °F
Dew Point 24 °F
Humidity 92%
Rainfall 0.00 in
Snow Depth Not available.
UV 0 out of 12
Pollen .10 out of 12
Air Quality Not available.
Flu Activity Not available.
METAR KOMK 271153Z AUTO 18003KT 9SM OVC110 M03/M04 A3022 RMK AO2 SLP251 T10331044 11022 21044 58010

More Conditions Fewer Conditions

Pressure 30.27 in
Visibility 9.0 miles
Clouds Overcast 11000 ft
Windchill 22 °F
Dew Point 24 °F
Humidity 92%
Rainfall 0.00 in
Snow Depth Not available.
UV 0 out of 12
Pollen .10 out of 12
Air Quality Not available.
Flu Activity Not available.
METAR KOMK 271153Z AUTO 18003KT 9SM OVC110 M03/M04 A3022 RMK AO2 SLP251 T10331044 11022 21044 58010

More Conditions Fewer Conditions

10-Day Weather Forecast

Almanac

Astronomy

Dec. 27, 2014 Rise Set
Actual Time
Civil Twilight
Nautical Twilight
Astronomical Twilight
Moon
Length of Visible Light
Length of Day
Tomorrow will be .
, % of the Moon is Illuminated

Today's Extremes

State Highs State Lows

Community

WunderPhotos

Upload Photos

1,780,886 photos uploaded!

WunderBlogs® & News

Nearby

Air Quality

  Air Quality AQ Index Pollutant
Not available.

Snow Depth

Station Depth Elevation

Earthquake Activity

City Distance Mag. Time & Date
Minimum magnitude displayed is 2.5.

Coastal Water Temperatures

Place Temperature

Nearby Weather Stations